AQQ10 IFIS: Internet Flight Information System
logo dgac
Miércoles 19 de Junio del 2024
Buscar por aerodromo o helipuerto
Ingrese nombre de aeródromo, localidad o designador OACI:
METAR del 18-06-2024 a las 22:00 UTC
Para mayor información visite www.meteochile.gob.cl
METAR SCRD 182200Z 36015G25KT 0300 RA OVC003 12/12 Q1015
Viento: dirección 360 grados, velocidad 15 nudos, con ráfagas de velocidad máxima de 25Nudos
Visibilidad: 300 metros
Lluvia
Nubes: Cubierto a 300 pies sobre el nivel del aeródromo
Temperatura: 12 °C
Rocío: 12 °C
Humedad_relativa: 100%
Presión: 1015 hPa
METAR del 18-06-2024 a las 21:00 UTC
Para mayor información visite www.meteochile.gob.cl
METAR SCRD 182100Z 33014G24KT 0300 RA OVC003 12/12 Q1014
Viento: dirección 330 grados, velocidad 14 nudos, con ráfagas de velocidad máxima de 24Nudos
Visibilidad: 300 metros
Lluvia
Nubes: Cubierto a 300 pies sobre el nivel del aeródromo
Temperatura: 12 °C
Rocío: 12 °C
Humedad_relativa: 100%
Presión: 1014 hPa
METAR del 18-06-2024 a las 20:00 UTC
Para mayor información visite www.meteochile.gob.cl
METAR SCRD 182000Z 32009KT 0500 RA OVC003 12/12 Q1014
Viento: dirección 320 grados, velocidad 9 nudos
Visibilidad: 500 metros
Lluvia
Nubes: Cubierto a 300 pies sobre el nivel del aeródromo
Temperatura: 12 °C
Rocío: 12 °C
Humedad_relativa: 100%
Presión: 1014 hPa
METAR del 18-06-2024 a las 19:00 UTC
Para mayor información visite www.meteochile.gob.cl
METAR SCRD 181900Z 36014KT 0100 FG VV000 12/12 Q1013
Viento: dirección 360 grados, velocidad 14 nudos
Visibilidad: 100 metros
Niebla
Visib_vertical: Cielo oscurecido, : 0 pies de visibilidad vertical
Temperatura: 12 °C
Rocío: 12 °C
Humedad_relativa: 100%
Presión: 1013 hPa
METAR del 18-06-2024 a las 18:00 UTC
Para mayor información visite www.meteochile.gob.cl
METAR SCRD 181800Z 33010G21KT 0100 FG VV000 12/12 Q1014 RESHRA
Viento: dirección 330 grados, velocidad 10 nudos, con ráfagas de velocidad máxima de 21Nudos
Visibilidad: 100 metros
Niebla
Visib_vertical: Cielo oscurecido, : 0 pies de visibilidad vertical
Temperatura: 12 °C
Rocío: 12 °C
Humedad_relativa: 100%
Presión: 1014 hPa
Se observó recientemente ChubascosLluvia
METAR del 18-06-2024 a las 17:00 UTC
Para mayor información visite www.meteochile.gob.cl
METAR SCRD 181700Z 36010G20KT 0100 FG VV000 12/12 Q1014
Viento: dirección 360 grados, velocidad 10 nudos, con ráfagas de velocidad máxima de 20Nudos
Visibilidad: 100 metros
Niebla
Visib_vertical: Cielo oscurecido, : 0 pies de visibilidad vertical
Temperatura: 12 °C
Rocío: 12 °C
Humedad_relativa: 100%
Presión: 1014 hPa
METAR del 18-06-2024 a las 16:00 UTC
Para mayor información visite www.meteochile.gob.cl
METAR SCRD 181600Z 36009KT 0100 FG VV000 12/12 Q1014
Viento: dirección 360 grados, velocidad 9 nudos
Visibilidad: 100 metros
Niebla
Visib_vertical: Cielo oscurecido, : 0 pies de visibilidad vertical
Temperatura: 12 °C
Rocío: 12 °C
Humedad_relativa: 100%
Presión: 1014 hPa
METAR del 18-06-2024 a las 15:00 UTC
Para mayor información visite www.meteochile.gob.cl
METAR SCRD 181500Z 33007KT 0100 FG VV000 11/11 Q1015
Viento: dirección 330 grados, velocidad 7 nudos
Visibilidad: 100 metros
Niebla
Visib_vertical: Cielo oscurecido, : 0 pies de visibilidad vertical
Temperatura: 11 °C
Rocío: 11 °C
Humedad_relativa: 100%
Presión: 1015 hPa
METAR del 18-06-2024 a las 14:00 UTC
Para mayor información visite www.meteochile.gob.cl
METAR SCRD 181400Z 35015KT 0100 FG VV000 12/12 Q1014
Viento: dirección 350 grados, velocidad 15 nudos
Visibilidad: 100 metros
Niebla
Visib_vertical: Cielo oscurecido, : 0 pies de visibilidad vertical
Temperatura: 12 °C
Rocío: 12 °C
Humedad_relativa: 100%
Presión: 1014 hPa
METAR del 18-06-2024 a las 13:00 UTC
Para mayor información visite www.meteochile.gob.cl
METAR SCRD 181300Z 33008KT 0100 FG VV000 12/12 Q1015
Viento: dirección 330 grados, velocidad 8 nudos
Visibilidad: 100 metros
Niebla
Visib_vertical: Cielo oscurecido, : 0 pies de visibilidad vertical
Temperatura: 12 °C
Rocío: 12 °C
Humedad_relativa: 100%
Presión: 1015 hPa